| Date | Time | Temp. (oF) | Dew Point (oF) | Rel. Hum. (%) | Press. (in.) | Wind Dir. | Wind Speed (mph) | Hourly Rainfall (in.) |
|
|---|---|---|---|---|---|---|---|---|---|
| 1 | 11/09 | 00:00 | 45 | 32 | 61 | 29.85 | S | 9 | 0.00 |
| 2 | 11/08 | 23:00 | 45 | 30 | 57 | 29.83 | ENE | 4 | 0.00 |
| 3 | 11/08 | 22:00 | 46 | 28 | 51 | 29.82 | NNE | 10 | 0.00 |
| 4 | 11/08 | 21:00 | 48 | 29 | 49 | 29.81 | NNE | 10 | 0.00 |
| 5 | 11/08 | 20:00 | 49 | 31 | 50 | 29.80 | N | 15 | 0.00 |
| 6 | 11/08 | 19:00 | 50 | 32 | 51 | 29.78 | N | 10 | 0.00 |
| 7 | 11/08 | 18:00 | 50 | 33 | 53 | 29.77 | NW | 14 | 0.00 |
| 8 | 11/08 | 17:00 | 51 | 33 | 51 | 29.76 | NNW | 4 | 0.00 |
| 9 | 11/08 | 16:00 | 53 | 33 | 48 | 29.75 | SSW | 13 | 0.00 |
| 10 | 11/08 | 15:00 | 54 | 34 | 47 | 29.74 | NNE | 9 | 0.00 |
| 11 | 11/08 | 14:00 | 54 | 33 | 46 | 29.73 | NE | 6 | 0.00 |
| 12 | 11/08 | 13:00 | 53 | 33 | 47 | 29.76 | N | 12 | 0.00 |
| 13 | 11/08 | 12:00 | 53 | 33 | 47 | 29.77 | NNW | 10 | 0.00 |
| 14 | 11/08 | 11:00 | 51 | 32 | 49 | 29.80 | NW | 10 | 0.00 |
| 15 | 11/08 | 10:00 | 48 | 31 | 53 | 29.83 | NNW | 13 | 0.00 |
| 16 | 11/08 | 09:00 | 45 | 31 | 59 | 29.85 | NW | 6 | 0.00 |
| 17 | miss | miss | miss | miss | miss | miss | miss | miss | |
| 18 | 11/08 | 09:39 | 44 | 30 | 59 | 29.87 | NW | 6 | 0.00 |
| 19 | miss | miss | miss | miss | miss | miss | miss | miss | |
| 20 | 11/08 | 09:37 | 44 | 30 | 60 | 29.87 | WNW | 5 | 0.00 |
| 21 | miss | miss | miss | miss | miss | miss | miss | miss | |
| 22 | 11/08 | 09:35 | 44 | 30 | 60 | 29.87 | NW | 9 | 0.00 |
| 23 | miss | miss | miss | miss | miss | miss | miss | miss | |
| 24 | 11/08 | 09:33 | 44 | 31 | 61 | 29.87 | NNE | 8 | 0.00 |
| 25 | miss | miss | miss | miss | miss | miss | miss | miss | |
| 26 | 11/08 | 09:32 | 44 | 31 | 61 | 29.87 | NW | 10 | 0.00 |
| 27 | miss | miss | miss | miss | miss | miss | miss | miss | |
| 28 | 11/08 | 09:32 | 44 | 31 | 61 | 29.87 | NW | 10 | 0.00 |
| 29 | miss | miss | miss | miss | miss | miss | miss | miss | |
| 30 | 11/08 | 09:32 | 44 | 31 | 61 | 29.87 | NW | 10 | 0.00 |
| 31 | miss | miss | miss | miss | miss | miss | miss | miss | |
| 32 | 11/08 | 09:32 | 44 | 31 | 61 | 29.87 | NW | 10 | 0.00 |
| 33 | miss | miss | miss | miss | miss | miss | miss | miss | |
| 34 | 11/08 | 09:32 | 44 | 31 | 61 | 29.87 | NW | 10 | 0.00 |
| 35 | miss | miss | miss | miss | miss | miss | miss | miss | |
| 36 | 11/08 | 09:32 | 44 | 31 | 61 | 29.87 | NW | 10 | 0.00 |
| 37 | miss | miss | miss | miss | miss | miss | miss | miss | |
| 38 | 11/08 | 09:32 | 44 | 31 | 61 | 29.87 | NW | 10 | 0.00 |
| 39 | miss | miss | miss | miss | miss | miss | miss | miss | |
| 40 | 11/08 | 09:00 | 42 | 31 | 65 | 29.89 | NW | 7 | 0.00 |
| 41 | 11/08 | 08:00 | 37 | 28 | 72 | 29.92 | NW | 5 | 0.00 |
| 42 | 11/08 | 07:00 | 35 | 26 | 72 | 29.94 | WSW | 2 | 0.00 |
| 43 | 11/08 | 06:00 | 36 | 27 | 70 | 29.96 | WNW | 1 | 0.00 |
| 44 | 11/08 | 05:00 | 38 | 27 | 66 | 29.99 | NNW | 7 | 0.00 |
| 45 | 11/08 | 04:00 | 38 | 27 | 66 | 30.02 | NNW | 5 | 0.00 |
| 46 | 11/08 | 03:00 | 36 | 29 | 77 | 30.04 | SSE | 3 | 0.00 |
| 47 | 11/08 | 02:00 | 36 | 34 | 93 | 30.06 | NW | 4 | 0.00 |
| 48 | 11/08 | 01:00 | 36 | 33 | 90 | 30.08 | WNW | 2 | 0.00 |
| 49 | 11/08 | 00:00 | 38 | 32 | 81 | 30.10 | NE | 2 | 0.00 |
| 50 | 11/07 | 23:00 | 38 | 32 | 79 | 30.13 | NW | 1 | 0.00 |
| 51 | 11/07 | 22:00 | 40 | 32 | 73 | 30.14 | NNW | 2 | 0.00 |
| 52 | 11/07 | 21:00 | 41 | 31 | 70 | 30.16 | NW | 2 | 0.00 |
| 53 | 11/07 | 20:00 | 42 | 32 | 68 | 30.19 | NNE | 6 | 0.00 |
| 54 | 11/07 | 19:00 | 42 | 29 | 62 | 30.20 | N | 4 | 0.00 |
| 55 | 11/07 | 18:00 | 44 | 28 | 55 | 30.19 | NNE | 7 | 0.00 |
| 56 | 11/07 | 17:00 | 46 | 27 | 49 | 30.20 | N | 14 | 0.00 |
| 57 | 11/07 | 16:00 | 48 | 28 | 47 | 30.20 | N | 13 | 0.00 |
| 58 | 11/07 | 15:00 | 47 | 27 | 47 | 30.22 | N | 6 | 0.00 |
| 59 | 11/07 | 14:00 | 46 | 28 | 50 | 30.26 | NNW | 8 | 0.00 |
| 60 | 11/07 | 13:00 | 47 | 30 | 52 | 30.30 | N | 16 | 0.00 |
| 61 | 11/07 | 12:00 | 44 | 31 | 62 | 30.35 | NNW | 10 | 0.00 |
| 62 | 11/07 | 11:00 | 42 | 30 | 64 | 30.39 | NNW | 7 | 0.00 |
| 63 | 11/07 | 10:00 | 39 | 32 | 78 | 30.39 | NW | 7 | 0.00 |
| 64 | 11/07 | 09:00 | 36 | 33 | 89 | 30.41 | N | 10 | 0.00 |
| 65 | 11/07 | 08:00 | 32 | 32 | 100 | 30.39 | NW | 5 | 0.00 |
| 66 | 11/07 | 07:00 | 33 | 32 | 100 | 30.38 | NW | 4 | 0.00 |
| 67 | 11/07 | 06:00 | 33 | 32 | 100 | 30.37 | NW | 3 | 0.00 |
| 68 | 11/07 | 05:00 | 33 | 32 | 100 | 30.36 | NNE | 2 | 0.00 |
| 69 | 11/07 | 04:00 | 33 | 32 | 99 | 30.36 | N | 3 | 0.00 |
| 70 | 11/07 | 03:00 | 34 | 32 | 95 | 30.35 | N | 4 | 0.00 |
| 71 | 11/07 | 02:00 | 35 | 32 | 92 | 30.35 | N | 4 | 0.00 |
| 72 | 11/07 | 01:00 | 36 | 33 | 91 | 30.34 | N | 3 | 0.00 |